createdAt,value
2023-12-23T00:01:40.304Z,8
2023-12-23T00:03:23.686Z,1
2023-12-23T00:05:07.097Z,1
2023-12-23T00:06:50.477Z,1
2023-12-23T00:08:33.896Z,1
2023-12-23T00:10:17.296Z,1
2023-12-23T00:12:00.684Z,1
2023-12-23T00:17:09.915Z,1
2023-12-23T00:18:53.309Z,1
2023-12-23T00:20:36.709Z,1
2023-12-23T00:22:20.118Z,1
2023-12-23T00:24:03.528Z,1
2023-12-23T00:25:46.910Z,1
2023-12-23T00:27:30.331Z,1
2023-12-23T00:29:13.701Z,1
2023-12-23T00:30:57.395Z,1
2023-12-23T00:32:40.798Z,1
2023-12-23T00:34:24.187Z,1
2023-12-23T00:36:07.622Z,0
2023-12-23T00:37:50.993Z,2
2023-12-23T00:39:34.386Z,1
2023-12-23T00:41:17.814Z,1
2023-12-23T00:43:01.180Z,1
2023-12-23T00:46:27.681Z,1
2023-12-23T00:48:11.054Z,1
2023-12-23T00:49:54.474Z,1
2023-12-23T00:51:37.843Z,1
2023-12-23T00:53:21.239Z,1
2023-12-23T00:55:04.641Z,1
2023-12-23T00:56:48.026Z,1
2023-12-23T01:01:57.287Z,1
2023-12-23T01:03:40.666Z,1
2023-12-23T01:05:24.068Z,0
2023-12-23T01:07:07.456Z,1
2023-12-23T01:08:50.870Z,1
2023-12-23T01:10:34.266Z,1
2023-12-23T01:12:17.660Z,1
2023-12-23T01:14:01.059Z,0
2023-12-23T01:17:27.531Z,2
2023-12-23T01:19:10.924Z,2
2023-12-23T01:20:54.325Z,1
2023-12-23T01:22:37.734Z,1
2023-12-23T01:24:21.131Z,1
2023-12-23T01:26:04.509Z,1
2023-12-23T01:27:47.910Z,2
2023-12-23T01:29:31.310Z,1
2023-12-23T01:32:57.775Z,1
2023-12-23T01:34:41.179Z,0
2023-12-23T01:36:24.558Z,1
2023-12-23T01:38:07.969Z,1
2023-12-23T01:39:51.356Z,1
2023-12-23T01:41:34.755Z,1
2023-12-23T01:43:18.165Z,1
2023-12-23T01:45:01.545Z,1
2023-12-23T01:48:28.046Z,1
2023-12-23T01:50:11.441Z,1
2023-12-23T01:51:54.844Z,1
2023-12-23T01:53:38.224Z,0
2023-12-23T01:55:21.619Z,1
2023-12-23T01:57:05.019Z,1
2023-12-23T01:58:48.425Z,1
2023-12-23T02:00:31.814Z,1
2023-12-23T02:02:15.530Z,1
2023-12-23T02:03:58.909Z,1
2023-12-23T02:05:42.314Z,1
2023-12-23T02:07:25.713Z,1
2023-12-23T02:09:09.102Z,1
2023-12-23T02:10:52.494Z,1
2023-12-23T02:12:35.898Z,1
2023-12-23T02:14:19.294Z,1
2023-12-23T02:17:45.773Z,1
2023-12-23T02:19:29.162Z,1
2023-12-23T02:21:12.560Z,1
2023-12-23T02:22:55.955Z,1
2023-12-23T02:24:39.356Z,2
2023-12-23T02:26:22.762Z,1
2023-12-23T02:28:06.158Z,1
2023-12-23T02:29:49.553Z,1
2023-12-23T02:33:16.020Z,1
2023-12-23T02:34:59.415Z,1
2023-12-23T02:36:42.829Z,1
2023-12-23T02:38:26.235Z,1
2023-12-23T02:40:09.606Z,1
2023-12-23T02:41:52.994Z,1
2023-12-23T02:43:36.400Z,1
2023-12-23T02:45:19.807Z,1
2023-12-23T02:48:46.277Z,1
2023-12-23T02:50:29.663Z,1
2023-12-23T02:52:13.072Z,1
2023-12-23T02:53:56.473Z,1
2023-12-23T02:55:39.863Z,1
2023-12-23T02:57:23.247Z,1
2023-12-23T02:59:06.652Z,1
2023-12-23T03:00:50.038Z,1
2023-12-23T03:04:16.517Z,1
2023-12-23T03:05:59.913Z,1
2023-12-23T03:07:43.312Z,1
2023-12-23T03:09:26.730Z,2
2023-12-23T03:11:10.101Z,1
2023-12-23T03:12:53.509Z,1
2023-12-23T03:14:36.890Z,1
2023-12-23T03:16:20.301Z,1
2023-12-23T03:18:03.998Z,1
2023-12-23T03:19:47.402Z,1
2023-12-23T03:21:30.805Z,1
2023-12-23T03:23:14.186Z,1
2023-12-23T03:24:57.581Z,1
2023-12-23T03:26:40.999Z,1
2023-12-23T03:28:24.382Z,1
2023-12-23T03:30:07.790Z,1
2023-12-23T03:33:34.251Z,1
2023-12-23T03:35:17.645Z,1
2023-12-23T03:37:01.049Z,1
2023-12-23T03:38:44.466Z,1
2023-12-23T03:40:27.845Z,0
2023-12-23T03:42:11.241Z,1
2023-12-23T03:43:54.626Z,1
2023-12-23T03:45:38.028Z,1
2023-12-23T03:49:04.509Z,1
2023-12-23T03:50:47.910Z,1
2023-12-23T03:52:31.297Z,1
2023-12-23T03:54:14.686Z,1
2023-12-23T03:55:58.091Z,1
2023-12-23T03:57:41.489Z,1
2023-12-23T03:59:24.899Z,1
2023-12-23T04:01:08.298Z,1
2023-12-23T04:04:34.750Z,1
2023-12-23T04:06:18.151Z,0
2023-12-23T04:08:01.549Z,1
2023-12-23T04:09:44.967Z,0
2023-12-23T04:11:28.363Z,1
2023-12-23T04:13:11.737Z,1
2023-12-23T04:14:55.149Z,1
2023-12-23T04:16:38.532Z,1
2023-12-23T04:20:05.022Z,1
2023-12-23T04:21:48.428Z,1
2023-12-23T04:23:31.822Z,1
2023-12-23T04:25:15.206Z,1
2023-12-23T04:26:58.611Z,1
2023-12-23T04:28:42.010Z,1
2023-12-23T04:30:25.413Z,1
2023-12-23T04:35:34.642Z,1
2023-12-23T04:37:18.040Z,1
2023-12-23T04:39:01.445Z,1
2023-12-23T04:40:44.848Z,1
2023-12-23T04:42:28.240Z,1
2023-12-23T04:44:11.620Z,1
2023-12-23T04:45:55.015Z,0
2023-12-23T04:51:04.266Z,1
2023-12-23T04:52:47.666Z,1
2023-12-23T04:54:31.050Z,1
2023-12-23T04:56:14.442Z,1
2023-12-23T04:57:57.845Z,1
2023-12-23T04:59:41.254Z,1
2023-12-23T05:01:24.645Z,2
2023-12-23T05:03:08.033Z,2
2023-12-23T05:04:51.743Z,2
2023-12-23T05:06:35.139Z,1
2023-12-23T05:08:18.538Z,1
2023-12-23T05:10:01.935Z,1
2023-12-23T05:11:45.340Z,1
2023-12-23T05:13:28.726Z,1
2023-12-23T05:15:12.125Z,1
2023-12-23T05:16:55.512Z,1
2023-12-23T05:18:39.232Z,1
2023-12-23T05:20:22.633Z,1
2023-12-23T05:22:06.021Z,1
2023-12-23T05:23:49.407Z,1
2023-12-23T05:25:32.802Z,1
2023-12-23T05:27:16.204Z,1
2023-12-23T05:28:59.604Z,1
2023-12-23T05:30:42.987Z,1
2023-12-23T05:34:09.481Z,1
2023-12-23T05:35:52.870Z,0
2023-12-23T05:37:36.262Z,1
2023-12-23T05:39:19.666Z,1
2023-12-23T05:41:03.065Z,1
2023-12-23T05:42:46.472Z,1
2023-12-23T05:44:29.868Z,1
2023-12-23T05:46:13.253Z,2
2023-12-23T05:47:56.968Z,1
2023-12-23T05:49:40.360Z,1
2023-12-23T05:51:23.764Z,1
2023-12-23T05:53:07.172Z,1
2023-12-23T05:54:50.545Z,1
2023-12-23T05:56:33.942Z,1
2023-12-23T05:58:17.340Z,1
2023-12-23T06:00:00.737Z,1
2023-12-23T06:03:27.201Z,1
2023-12-23T06:05:10.594Z,1
2023-12-23T06:06:54.016Z,1
2023-12-23T06:08:37.393Z,1
2023-12-23T06:10:20.808Z,0
2023-12-23T06:12:04.207Z,1
2023-12-23T06:13:47.596Z,1
2023-12-23T06:15:30.984Z,1
2023-12-23T06:17:14.687Z,0
2023-12-23T06:18:58.079Z,1
2023-12-23T06:20:41.487Z,1
2023-12-23T06:22:24.878Z,1
2023-12-23T06:24:08.272Z,1
2023-12-23T06:25:51.688Z,1
2023-12-23T06:27:35.069Z,1
2023-12-23T06:29:18.474Z,1
2023-12-23T06:32:44.927Z,1
2023-12-23T06:34:28.341Z,1
2023-12-23T06:36:11.736Z,1
2023-12-23T06:37:55.149Z,1
2023-12-23T06:39:38.545Z,1
2023-12-23T06:41:21.926Z,1
2023-12-23T06:43:05.332Z,1
2023-12-23T06:48:14.587Z,1
2023-12-23T06:49:58.001Z,1
2023-12-23T06:51:41.376Z,1
2023-12-23T06:53:24.791Z,1
2023-12-23T06:55:08.171Z,1
2023-12-23T06:56:51.560Z,1
2023-12-23T06:58:34.957Z,1
2023-12-23T07:00:18.398Z,1
2023-12-23T07:02:02.056Z,1
2023-12-23T07:03:45.447Z,1
2023-12-23T07:05:28.844Z,1
2023-12-23T07:07:12.247Z,1
2023-12-23T07:08:55.639Z,1
2023-12-23T07:10:39.062Z,1
2023-12-23T07:12:22.431Z,1
2023-12-23T07:14:05.831Z,1
2023-12-23T07:19:15.077Z,1
2023-12-23T07:20:58.485Z,1
2023-12-23T07:22:41.883Z,1
2023-12-23T07:24:25.295Z,1
2023-12-23T07:26:08.653Z,2
2023-12-23T07:27:52.056Z,2
2023-12-23T07:29:35.444Z,1
2023-12-23T07:31:18.852Z,1
2023-12-23T07:34:45.329Z,1
2023-12-23T07:36:28.715Z,2
2023-12-23T07:38:12.106Z,2
2023-12-23T07:39:55.523Z,2
2023-12-23T07:41:38.919Z,2
2023-12-23T07:43:22.313Z,2
2023-12-23T07:45:05.724Z,1
2023-12-23T07:46:49.096Z,2
2023-12-23T07:51:58.333Z,3
2023-12-23T07:53:41.750Z,2
2023-12-23T07:55:25.157Z,2
2023-12-23T07:57:08.527Z,2
2023-12-23T07:58:51.923Z,3
2023-12-23T08:00:35.349Z,2
2023-12-23T08:02:18.725Z,2
2023-12-23T08:04:02.144Z,2
2023-12-23T08:07:28.598Z,3
2023-12-23T08:09:12.001Z,3
2023-12-23T08:10:55.378Z,4
2023-12-23T08:12:38.834Z,4
2023-12-23T08:14:22.186Z,5
2023-12-23T08:16:05.584Z,4
2023-12-23T08:17:48.979Z,22
2023-12-23T08:19:32.365Z,22
2023-12-23T08:22:58.860Z,25
2023-12-23T08:24:42.256Z,28
2023-12-23T08:26:25.653Z,35
2023-12-23T08:28:09.053Z,34
2023-12-23T08:29:52.419Z,32
2023-12-23T08:31:35.852Z,28
2023-12-23T08:33:19.244Z,26
2023-12-23T08:35:02.627Z,23
2023-12-23T08:38:29.108Z,22
2023-12-23T08:40:12.494Z,23
2023-12-23T08:41:55.888Z,22
2023-12-23T08:43:39.283Z,20
2023-12-23T08:45:22.688Z,20
2023-12-23T08:47:06.093Z,19
2023-12-23T08:48:49.503Z,19
2023-12-23T08:53:58.726Z,15
2023-12-23T08:55:42.130Z,14
2023-12-23T08:57:25.520Z,13
2023-12-23T08:59:08.907Z,13
2023-12-23T09:00:52.300Z,13
2023-12-23T09:02:35.693Z,13
2023-12-23T09:04:19.092Z,13
2023-12-23T09:11:11.733Z,17
2023-12-23T09:12:55.131Z,19
2023-12-23T09:14:38.540Z,20
2023-12-23T09:16:21.925Z,19
2023-12-23T09:18:05.328Z,19
2023-12-23T09:19:48.726Z,17
2023-12-23T09:21:32.133Z,16
2023-12-23T09:23:15.833Z,43
2023-12-23T09:24:59.208Z,44
2023-12-23T09:26:42.637Z,42
2023-12-23T09:28:26.024Z,42
2023-12-23T09:30:09.421Z,40
2023-12-23T09:31:52.831Z,40
2023-12-23T09:33:36.201Z,42
2023-12-23T09:38:45.458Z,52
2023-12-23T09:40:28.862Z,53
2023-12-23T09:42:12.266Z,51
2023-12-23T09:43:55.644Z,51
2023-12-23T09:45:39.057Z,47
2023-12-23T09:47:22.451Z,51
2023-12-23T09:49:05.838Z,55
2023-12-23T09:52:32.307Z,67
2023-12-23T09:54:15.705Z,71
2023-12-23T09:55:59.111Z,75
2023-12-23T09:57:42.483Z,83
2023-12-23T09:59:25.894Z,73
2023-12-23T10:01:09.301Z,80
2023-12-23T10:02:52.702Z,89
2023-12-23T10:04:36.105Z,95
2023-12-23T10:06:19.780Z,95
2023-12-23T10:08:03.272Z,105
2023-12-23T10:09:46.599Z,126
2023-12-23T10:11:29.976Z,139
2023-12-23T10:13:13.372Z,135
2023-12-23T10:14:56.777Z,124
2023-12-23T10:16:40.192Z,108
2023-12-23T10:18:23.569Z,103
2023-12-23T10:20:07.269Z,95
2023-12-23T10:21:50.685Z,89
2023-12-23T10:23:34.073Z,267
2023-12-23T10:25:17.471Z,224
2023-12-23T10:27:00.867Z,73
2023-12-23T10:28:44.265Z,71
2023-12-23T10:30:27.646Z,80
2023-12-23T10:32:11.046Z,78
2023-12-23T10:35:37.516Z,101
2023-12-23T10:37:20.909Z,105
2023-12-23T10:39:04.317Z,119
2023-12-23T10:40:47.782Z,132
2023-12-23T10:42:31.127Z,130
2023-12-23T10:44:14.504Z,147
2023-12-23T10:45:57.915Z,157
2023-12-23T10:47:41.293Z,138
2023-12-23T10:49:25.012Z,109
2023-12-23T10:51:08.398Z,93
2023-12-23T10:52:51.798Z,77
2023-12-23T10:54:35.192Z,73
2023-12-23T10:56:18.598Z,69
2023-12-23T10:58:01.980Z,76
2023-12-23T10:59:45.375Z,79
2023-12-23T11:04:54.663Z,79
2023-12-23T11:06:38.028Z,77
2023-12-23T11:08:21.419Z,71
2023-12-23T11:10:04.818Z,69
2023-12-23T11:11:48.222Z,69
2023-12-23T11:13:31.636Z,70
2023-12-23T11:15:15.012Z,73
2023-12-23T11:18:41.491Z,80
2023-12-23T11:20:24.890Z,78
2023-12-23T11:22:08.275Z,75
2023-12-23T11:23:51.669Z,68
2023-12-23T11:25:35.076Z,65
2023-12-23T11:27:18.483Z,63
2023-12-23T11:29:01.867Z,60
2023-12-23T11:30:45.264Z,52
2023-12-23T11:32:28.987Z,50
2023-12-23T11:34:12.363Z,54
2023-12-23T11:35:55.776Z,58
2023-12-23T11:37:39.159Z,61
2023-12-23T11:39:22.542Z,61
2023-12-23T11:41:05.962Z,64
2023-12-23T11:42:49.345Z,64
2023-12-23T11:44:32.736Z,62
2023-12-23T11:46:16.456Z,62
2023-12-23T11:47:59.845Z,61
2023-12-23T11:49:43.309Z,60
2023-12-23T11:51:26.653Z,69
2023-12-23T11:53:10.040Z,66
2023-12-23T11:54:53.485Z,56
2023-12-23T11:56:36.858Z,55
2023-12-23T11:58:20.235Z,60
2023-12-23T12:00:03.942Z,69
2023-12-23T12:01:47.317Z,71
2023-12-23T12:03:30.739Z,70
2023-12-23T12:05:14.116Z,73
2023-12-23T12:06:57.527Z,72
2023-12-23T12:08:40.912Z,75
2023-12-23T12:10:24.361Z,85
2023-12-23T12:12:07.712Z,102
2023-12-23T12:13:51.414Z,118
2023-12-23T12:15:34.812Z,109
2023-12-23T12:17:18.195Z,103
2023-12-23T12:19:01.594Z,100
2023-12-23T12:20:45.005Z,78
2023-12-23T12:22:28.397Z,74
2023-12-23T12:24:11.785Z,76
2023-12-23T12:25:55.191Z,89
2023-12-23T12:27:38.914Z,82
2023-12-23T12:29:22.293Z,81
2023-12-23T12:31:05.683Z,81
2023-12-23T12:32:49.068Z,89
2023-12-23T12:34:32.482Z,106
2023-12-23T12:36:15.949Z,92
2023-12-23T12:37:59.277Z,88
2023-12-23T12:39:42.677Z,69
2023-12-23T12:41:26.387Z,72
2023-12-23T12:43:09.769Z,75
2023-12-23T12:44:53.204Z,74
2023-12-23T12:46:36.566Z,75
2023-12-23T12:48:19.961Z,87
2023-12-23T12:50:03.368Z,95
2023-12-23T12:51:46.768Z,83
2023-12-23T12:53:30.163Z,82
2023-12-23T12:55:13.885Z,90
2023-12-23T12:56:57.273Z,87
2023-12-23T12:58:40.659Z,95
2023-12-23T13:00:24.066Z,87
2023-12-23T13:02:07.461Z,78
2023-12-23T13:03:50.866Z,64
2023-12-23T13:05:34.236Z,59
2023-12-23T13:07:17.655Z,62
2023-12-23T13:10:44.128Z,70
2023-12-23T13:12:27.522Z,75
2023-12-23T13:14:10.907Z,83
2023-12-23T13:15:54.308Z,80
2023-12-23T13:17:37.743Z,82
2023-12-23T13:19:21.088Z,76
2023-12-23T13:21:04.494Z,79
2023-12-23T13:22:47.900Z,70
2023-12-23T13:26:14.373Z,67
2023-12-23T13:27:57.781Z,65
2023-12-23T13:29:41.146Z,59
2023-12-23T13:31:24.548Z,55
2023-12-23T13:33:07.948Z,55
2023-12-23T13:34:51.363Z,58
2023-12-23T13:36:34.738Z,71
2023-12-23T13:38:18.140Z,68
2023-12-23T13:40:01.847Z,63
2023-12-23T13:41:45.236Z,86
2023-12-23T13:43:28.658Z,85
2023-12-23T13:45:12.204Z,78
2023-12-23T13:46:55.438Z,76
2023-12-23T13:48:39.150Z,75
2023-12-23T13:50:22.229Z,78
2023-12-23T13:52:05.627Z,85
2023-12-23T13:53:49.345Z,89
2023-12-23T13:55:32.726Z,82
2023-12-23T13:57:16.119Z,83
2023-12-23T13:58:59.534Z,83
2023-12-23T14:00:42.914Z,78
2023-12-23T14:02:26.326Z,75
2023-12-23T14:04:09.715Z,92
2023-12-23T14:05:53.110Z,82
2023-12-23T14:09:19.592Z,65
2023-12-23T14:11:02.993Z,66
2023-12-23T14:12:46.379Z,66
2023-12-23T14:14:29.777Z,87
2023-12-23T14:16:13.167Z,80
2023-12-23T14:17:56.575Z,76
2023-12-23T14:19:39.958Z,72
2023-12-23T14:23:06.452Z,57
2023-12-23T14:24:49.853Z,48
2023-12-23T14:26:33.236Z,44
2023-12-23T14:28:16.645Z,44
2023-12-23T14:30:00.015Z,50
2023-12-23T14:31:43.437Z,55
2023-12-23T14:33:26.845Z,61
2023-12-23T14:38:36.059Z,50
2023-12-23T14:40:19.464Z,51
2023-12-23T14:42:02.861Z,52
2023-12-23T14:43:46.274Z,89
2023-12-23T14:45:29.651Z,297
2023-12-23T14:47:13.060Z,298
2023-12-23T14:48:56.456Z,296
2023-12-23T14:52:22.915Z,292
2023-12-23T14:54:06.301Z,289
2023-12-23T14:55:49.722Z,280
2023-12-23T14:57:33.111Z,278
2023-12-23T14:59:16.511Z,270
2023-12-23T15:00:59.900Z,263
2023-12-23T15:02:43.291Z,260
2023-12-23T15:07:52.538Z,271
2023-12-23T15:09:35.949Z,267
2023-12-23T15:11:19.340Z,262
2023-12-23T15:13:02.737Z,258
2023-12-23T15:14:46.135Z,260
2023-12-23T15:16:29.523Z,260
2023-12-23T15:18:12.913Z,259
2023-12-23T15:21:39.400Z,248
2023-12-23T15:23:22.808Z,249
2023-12-23T15:25:06.179Z,242
2023-12-23T15:26:49.592Z,248
2023-12-23T15:28:32.973Z,249
2023-12-23T15:30:16.369Z,251
2023-12-23T15:31:59.779Z,252
2023-12-23T15:35:26.250Z,245
2023-12-23T15:37:09.647Z,246
2023-12-23T15:38:53.039Z,255
2023-12-23T15:40:36.427Z,251
2023-12-23T15:42:19.843Z,249
2023-12-23T15:44:03.237Z,249
2023-12-23T15:45:46.620Z,246
2023-12-23T15:49:13.118Z,243
2023-12-23T15:50:56.501Z,244
2023-12-23T15:52:39.891Z,248
2023-12-23T15:54:23.288Z,242
2023-12-23T15:56:06.685Z,244
2023-12-23T15:57:50.078Z,237
2023-12-23T15:59:33.518Z,251
2023-12-23T16:01:16.886Z,208
2023-12-23T16:04:43.345Z,254
2023-12-23T16:06:26.746Z,252
2023-12-23T16:08:10.146Z,249
2023-12-23T16:09:53.536Z,252
2023-12-23T16:11:36.943Z,246
2023-12-23T16:13:20.343Z,240
2023-12-23T16:15:03.725Z,249
2023-12-23T16:16:47.127Z,243
2023-12-23T16:20:13.640Z,241
2023-12-23T16:21:56.995Z,245
2023-12-23T16:23:40.421Z,249
2023-12-23T16:25:23.813Z,248
2023-12-23T16:27:07.228Z,245
2023-12-23T16:28:50.607Z,243
2023-12-23T16:30:33.988Z,245
2023-12-23T16:32:17.379Z,248
2023-12-23T16:35:43.886Z,250
2023-12-23T16:37:27.263Z,251
2023-12-23T16:39:10.659Z,255
2023-12-23T16:40:54.083Z,255
2023-12-23T16:44:20.856Z,272
2023-12-23T16:46:04.234Z,8
2023-12-23T16:47:47.672Z,9
2023-12-23T16:51:14.108Z,10
2023-12-23T16:52:57.529Z,10
2023-12-23T16:54:40.904Z,9
2023-12-23T16:56:24.290Z,10
2023-12-23T16:58:07.708Z,6
2023-12-23T16:59:51.114Z,9
2023-12-23T17:01:34.527Z,9
2023-12-23T17:03:17.882Z,10
2023-12-23T17:06:44.386Z,8
2023-12-23T17:08:27.785Z,9
2023-12-23T17:10:11.167Z,9
2023-12-23T17:11:54.588Z,9
2023-12-23T17:13:38.001Z,9
2023-12-23T17:15:21.391Z,8
2023-12-23T17:17:04.761Z,9
2023-12-23T17:22:14.002Z,9
2023-12-23T17:23:57.396Z,9
2023-12-23T17:25:40.821Z,9
2023-12-23T17:27:24.200Z,9
2023-12-23T17:29:07.587Z,9
2023-12-23T17:30:50.976Z,9
2023-12-23T17:32:34.380Z,10
2023-12-23T17:36:00.870Z,10
2023-12-23T17:37:44.268Z,9
2023-12-23T17:39:27.652Z,9
2023-12-23T17:41:11.048Z,9
2023-12-23T17:42:54.454Z,10
2023-12-23T17:44:37.843Z,9
2023-12-23T17:46:21.229Z,9
2023-12-23T17:48:04.621Z,9
2023-12-23T17:49:48.356Z,9
2023-12-23T17:51:31.729Z,9
2023-12-23T17:53:15.127Z,9
2023-12-23T17:54:58.521Z,9
2023-12-23T17:56:41.945Z,10
2023-12-23T17:58:25.344Z,9
2023-12-23T18:00:08.714Z,10
2023-12-23T18:01:52.143Z,9
2023-12-23T18:05:18.594Z,10
2023-12-23T18:07:01.996Z,9
2023-12-23T18:08:45.394Z,9
2023-12-23T18:10:28.777Z,9
2023-12-23T18:12:12.173Z,9
2023-12-23T18:13:55.606Z,9
2023-12-23T18:15:38.978Z,9
2023-12-23T18:17:22.460Z,10
2023-12-23T18:22:31.612Z,9
2023-12-23T18:24:15.022Z,9
2023-12-23T18:25:58.417Z,10
2023-12-23T18:27:41.801Z,9
2023-12-23T18:29:25.203Z,6
2023-12-23T18:31:08.600Z,8
2023-12-23T18:32:51.993Z,9
2023-12-23T18:34:35.387Z,9
2023-12-23T18:38:01.867Z,9
2023-12-23T18:39:45.273Z,9
2023-12-23T18:41:28.685Z,9
2023-12-23T18:43:12.041Z,9
2023-12-23T18:44:55.442Z,9
2023-12-23T18:46:38.838Z,9
2023-12-23T18:48:22.258Z,9
2023-12-23T18:50:05.639Z,10
2023-12-23T18:51:49.340Z,9
2023-12-23T18:53:32.745Z,9
2023-12-23T18:55:16.164Z,9
2023-12-23T18:56:59.540Z,9
2023-12-23T18:58:42.933Z,9
2023-12-23T19:00:26.318Z,10
2023-12-23T19:02:09.735Z,9
2023-12-23T19:03:53.167Z,9
2023-12-23T19:07:19.596Z,9
2023-12-23T19:09:02.992Z,9
2023-12-23T19:10:46.383Z,9
2023-12-23T19:12:29.797Z,9
2023-12-23T19:14:13.171Z,9
2023-12-23T19:15:56.583Z,9
2023-12-23T19:17:39.973Z,10
2023-12-23T19:21:06.451Z,9
2023-12-23T19:24:33.249Z,9
2023-12-23T19:26:16.736Z,9
2023-12-23T19:28:00.052Z,9
2023-12-23T19:29:43.433Z,9
2023-12-23T19:31:26.853Z,9
2023-12-23T19:33:10.232Z,9
2023-12-23T19:36:36.713Z,9
2023-12-23T19:38:20.092Z,8
2023-12-23T19:40:03.533Z,9
2023-12-23T19:41:46.947Z,9
2023-12-23T19:43:30.293Z,9
2023-12-23T19:45:13.696Z,9
2023-12-23T19:46:57.093Z,9
2023-12-23T19:50:23.573Z,9
2023-12-23T19:52:06.945Z,9
2023-12-23T19:53:50.352Z,10
2023-12-23T19:55:33.755Z,9
2023-12-23T19:57:17.153Z,9
2023-12-23T19:59:00.542Z,10
2023-12-23T20:00:43.995Z,9
2023-12-23T20:02:27.326Z,9
2023-12-23T20:04:11.051Z,9
2023-12-23T20:05:54.429Z,10
2023-12-23T20:07:37.833Z,9
2023-12-23T20:09:21.233Z,9
2023-12-23T20:11:04.626Z,9
2023-12-23T20:12:48.013Z,9
2023-12-23T20:14:31.434Z,9
2023-12-23T20:19:40.660Z,10
2023-12-23T20:21:24.062Z,9
2023-12-23T20:23:07.471Z,10
2023-12-23T20:24:50.864Z,10
2023-12-23T20:26:34.253Z,9
2023-12-23T20:28:17.649Z,9
2023-12-23T20:35:10.920Z,10
2023-12-23T20:36:54.322Z,10
2023-12-23T20:38:37.728Z,10
2023-12-23T20:40:21.121Z,10
2023-12-23T20:42:04.516Z,10
2023-12-23T20:43:47.925Z,8
2023-12-23T20:48:57.156Z,10
2023-12-23T20:50:40.549Z,10
2023-12-23T20:52:23.958Z,10
2023-12-23T20:54:07.360Z,10
2023-12-23T20:55:50.792Z,11
2023-12-23T20:57:34.157Z,10
2023-12-23T20:59:17.541Z,9
2023-12-23T21:04:26.776Z,9
2023-12-23T21:06:10.177Z,10
2023-12-23T21:07:53.573Z,10
2023-12-23T21:09:36.964Z,10
2023-12-23T21:11:20.379Z,10
2023-12-23T21:13:03.762Z,10
2023-12-23T21:14:47.168Z,9
2023-12-23T21:18:13.625Z,9
2023-12-23T21:19:57.029Z,10
2023-12-23T21:21:40.497Z,9
2023-12-23T21:23:23.844Z,10
2023-12-23T21:25:07.247Z,10
2023-12-23T21:26:50.635Z,11
2023-12-23T21:28:34.050Z,10
2023-12-23T21:30:17.426Z,9
2023-12-23T21:32:01.161Z,9
2023-12-23T21:33:44.647Z,10
2023-12-23T21:35:27.923Z,10
2023-12-23T21:37:11.322Z,9
2023-12-23T21:38:54.712Z,10
2023-12-23T21:40:38.109Z,10
2023-12-23T21:42:21.491Z,9
2023-12-23T21:44:04.905Z,9
2023-12-23T21:45:48.596Z,10
2023-12-23T21:47:31.999Z,9
2023-12-23T21:49:15.401Z,9
2023-12-23T21:50:58.810Z,10
2023-12-23T21:52:42.185Z,9
2023-12-23T21:54:25.670Z,9
2023-12-23T21:56:08.974Z,10
2023-12-23T21:57:52.382Z,10
2023-12-23T21:59:36.084Z,9
2023-12-23T22:01:19.491Z,9
2023-12-23T22:03:02.891Z,9
2023-12-23T22:04:46.267Z,9
2023-12-23T22:06:29.672Z,10
2023-12-23T22:08:13.058Z,10
2023-12-23T22:09:56.473Z,10
2023-12-23T22:11:39.867Z,10
2023-12-23T22:13:23.557Z,10
2023-12-23T22:15:06.974Z,9
2023-12-23T22:16:50.362Z,10
2023-12-23T22:18:33.780Z,10
2023-12-23T22:20:17.157Z,10
2023-12-23T22:22:00.563Z,9
2023-12-23T22:23:43.944Z,10
2023-12-23T22:25:27.345Z,10
2023-12-23T22:28:53.812Z,8
2023-12-23T22:30:37.204Z,9
2023-12-23T22:32:20.614Z,10
2023-12-23T22:34:04.012Z,9
2023-12-23T22:35:47.401Z,9
2023-12-23T22:37:30.805Z,9
2023-12-23T22:39:14.188Z,9
2023-12-23T22:40:57.592Z,9
2023-12-23T22:42:41.292Z,10
2023-12-23T22:44:24.702Z,10
2023-12-23T22:46:08.081Z,9
2023-12-23T22:47:51.489Z,9
2023-12-23T22:49:34.883Z,10
2023-12-23T22:51:18.282Z,9
2023-12-23T22:53:01.694Z,9
2023-12-23T22:54:45.075Z,10
2023-12-23T22:58:11.552Z,9
2023-12-23T22:59:54.944Z,9
2023-12-23T23:01:38.352Z,10
2023-12-23T23:03:21.741Z,9
2023-12-23T23:05:05.138Z,9
2023-12-23T23:06:48.542Z,10
2023-12-23T23:08:31.934Z,8
2023-12-23T23:10:15.329Z,10
2023-12-23T23:11:59.029Z,9
2023-12-23T23:13:42.447Z,9
2023-12-23T23:15:25.881Z,10
2023-12-23T23:17:09.253Z,9
2023-12-23T23:18:52.623Z,9
2023-12-23T23:20:36.007Z,9
2023-12-23T23:22:19.439Z,9
2023-12-23T23:24:02.810Z,10
2023-12-23T23:25:46.605Z,9
2023-12-23T23:27:29.939Z,10
2023-12-23T23:29:13.333Z,10
2023-12-23T23:30:56.706Z,9
2023-12-23T23:32:40.102Z,10
2023-12-23T23:34:23.525Z,9
2023-12-23T23:36:06.914Z,9
2023-12-23T23:37:50.291Z,10
2023-12-23T23:39:34.011Z,8
2023-12-23T23:41:17.398Z,9
2023-12-23T23:43:00.798Z,9
2023-12-23T23:44:44.188Z,9
2023-12-23T23:46:27.653Z,9
2023-12-23T23:48:10.998Z,9
2023-12-23T23:49:54.392Z,9
2023-12-23T23:51:37.793Z,9
2023-12-23T23:53:21.480Z,9
2023-12-23T23:55:04.878Z,9
2023-12-23T23:56:48.271Z,8
2023-12-23T23:58:31.679Z,9
